Messwerte Zabol

Temperatur

Temperatur
°C
1624149000 5.00 5.00 30
1624152600 6.00 6.00
1624156200 7.00 7.00 30
1624159800 8.00 8.00 31
1624163400 9.00 9.00 34
1624167000 10.00 10.00 36
1624170600 11.00 11.00 38
1624174200 12.00 12.00 39
1624177800 13.00 13.00 41
1624181400 14.00 14.00 41
1624185000 15.00 15.00 41
1624188600 16.00 16.00 41
1624192200 17.00 17.00 40
1624195800 18.00 18.00 39
1624199400 19.00 19.00 38
1624203000 20.00 20.00 36
1624206600 21.00 21.00 35
1624210200 22.00 22.00 34
1624213800 23.00 23.00 33
1624217400 0.00 0.00 31
1624221000 1.00 1.00 30
1624224600 2.00 2.00 30
1624228200 3.00 3.00
1624231800 4.00 4.00

Wir danken unserem Partner:

Aktuellste Messwerte

Wettercharakter
Wetter: meist klar
Temperatur
27 °C
Feuchtigkeit
10 %
Wind
45 km/hWindrichtung: Nord
Böen
65 km/h
Luftdruck
1003 hPa
Messzeit: 21. Juni 2021, 4.30Datenquelle: METAR

Weitere Messstationen in der Nähe

Messstation Temperatur Entfernung
Zahedan 16 °C 185 km
Birjand 16 °C 295 km
Herat - 359 km
Iranshahr - 434 km
Kerman 14 °C 440 km

Wind

Windrichtung Böen Mittelwind
° km/h km/h
1624149000 5.00 4.00 - 5.00 340° 40
1624152600 6.00 5.00 - 6.00
1624156200 7.00 6.00 - 7.00 340° 45
1624159800 8.00 7.00 - 8.00 340° 45
1624163400 9.00 8.00 - 9.00 340° 50
1624167000 10.00 9.00 - 10.00 340° 50
1624170600 11.00 10.00 - 11.00 340° 55
1624174200 12.00 11.00 - 12.00 340° 45
1624177800 13.00 12.00 - 13.00 360° 45
1624181400 14.00 13.00 - 14.00 360° 35
1624185000 15.00 14.00 - 15.00 340° 45
1624188600 16.00 15.00 - 16.00 340° 65 50
1624192200 17.00 16.00 - 17.00 330° 45
1624195800 18.00 17.00 - 18.00 330° 75 50
1624199400 19.00 18.00 - 19.00 330° 75 50
1624203000 20.00 19.00 - 20.00 330° 85 55
1624206600 21.00 20.00 - 21.00 340° 50
1624210200 22.00 21.00 - 22.00 330° 45
1624213800 23.00 22.00 - 23.00 330° 40
1624217400 0.00 23.00 - 0.00 330° 70 50
1624221000 1.00 0.00 - 1.00 330° 55
1624224600 2.00 1.00 - 2.00 340° 80 60
1624228200 3.00 2.00 - 3.00
1624231800 4.00 3.00 - 4.00

Ihre Wetterstation

Fehlt Ihre Wetterstation auf unserem Portal?

Schreiben Sie an network@meteonews.ch

Klima

Wann ist es am wärmsten? Wann regnet es am wenigsten? Unsere Klimadaten geben Auskunft.